createdAt,value
2022-11-01T00:02:16.180Z,89.21
2022-11-01T00:04:44.537Z,89.44
2022-11-01T00:07:12.844Z,89.46
2022-11-01T00:09:40.750Z,89.69
2022-11-01T00:12:08.817Z,89.73
2022-11-01T00:14:37.127Z,89.87
2022-11-01T00:17:05.966Z,90.05
2022-11-01T00:19:34.182Z,90.26
2022-11-01T00:22:02.576Z,90.61
2022-11-01T00:24:33.505Z,90.75
2022-11-01T00:27:01.766Z,90.69
2022-11-01T00:29:29.938Z,90.87
2022-11-01T00:31:57.887Z,90.90
2022-11-01T00:34:26.180Z,90.90
2022-11-01T00:36:54.369Z,90.73
2022-11-01T00:39:25.079Z,90.78
2022-11-01T00:41:55.748Z,90.84
2022-11-01T00:44:23.681Z,91.22
2022-11-01T00:46:51.629Z,91.49
2022-11-01T00:49:19.810Z,91.65
2022-11-01T00:51:47.780Z,92.03
2022-11-01T00:54:15.776Z,92.02
2022-11-01T00:56:44.480Z,92.02
2022-11-01T00:59:12.437Z,91.92
2022-11-01T01:01:40.599Z,91.59
2022-11-01T01:04:09.290Z,91.95
2022-11-01T01:06:37.346Z,92.19
2022-11-01T01:09:05.266Z,92.14
2022-11-01T01:11:33.724Z,92.50
2022-11-01T01:14:01.653Z,92.52
2022-11-01T01:16:29.595Z,92.46
2022-11-01T01:18:58.827Z,92.41
2022-11-01T01:21:26.912Z,92.22
2022-11-01T01:23:54.909Z,91.98
2022-11-01T01:26:23.241Z,91.98
2022-11-01T01:28:53.840Z,91.89
2022-11-01T01:31:21.865Z,92.06
2022-11-01T01:33:50.267Z,91.98
2022-11-01T01:36:18.233Z,91.89
2022-11-01T01:38:46.258Z,91.91
2022-11-01T01:41:33.335Z,92.01
2022-11-01T01:44:01.556Z,92.33
2022-11-01T01:46:29.650Z,92.11
2022-11-01T01:49:00.039Z,92.20
2022-11-01T01:51:29.878Z,92.32
2022-11-01T01:53:58.927Z,92.30
2022-11-01T01:56:35.680Z,92.50
2022-11-01T01:59:09.212Z,92.55
2022-11-01T02:06:01.685Z,92.36
2022-11-01T02:08:30.291Z,92.38
2022-11-01T02:11:04.953Z,92.63
2022-11-01T02:13:33.350Z,92.79
2022-11-01T02:16:12.775Z,92.89
2022-11-01T02:18:55.693Z,92.91
2022-11-01T02:21:48.382Z,92.63
2022-11-01T02:24:45.073Z,92.46
2022-11-01T02:27:23.386Z,92.40
2022-11-01T02:30:14.818Z,92.33
2022-11-01T02:33:02.219Z,92.32
2022-11-01T02:35:50.754Z,92.22
2022-11-01T02:38:39.867Z,92.20
2022-11-01T02:41:17.661Z,91.82
2022-11-01T02:44:05.686Z,91.79
2022-11-01T02:46:57.633Z,91.76
2022-11-01T02:49:29.225Z,91.51
2022-11-01T02:51:59.458Z,91.67
2022-11-01T02:54:32.212Z,91.67
2022-11-01T02:57:06.887Z,91.76
2022-11-01T02:59:45.959Z,91.72
2022-11-01T03:02:39.608Z,92.10
2022-11-01T03:05:12.997Z,92.03
2022-11-01T03:07:46.025Z,92.13
2022-11-01T03:10:14.493Z,92.15
2022-11-01T03:13:06.355Z,92.11
2022-11-01T03:15:40.801Z,92.12
2022-11-01T03:18:18.486Z,92.13
2022-11-01T03:20:59.528Z,92.21
2022-11-01T03:23:35.811Z,92.25
2022-11-01T03:26:08.028Z,92.44
2022-11-01T03:28:42.214Z,92.33
2022-11-01T03:31:21.529Z,92.61
2022-11-01T03:33:54.250Z,92.62
2022-11-01T03:36:26.505Z,92.63
2022-11-01T03:38:59.945Z,92.63
2022-11-01T03:41:33.081Z,92.52
2022-11-01T03:44:01.327Z,92.45
2022-11-01T03:46:29.545Z,92.52
2022-11-01T03:48:57.551Z,92.38
2022-11-01T03:51:25.563Z,92.50
2022-11-01T03:53:53.554Z,92.80
2022-11-01T03:56:22.012Z,92.62
2022-11-01T03:58:50.365Z,92.67
2022-11-01T04:01:18.665Z,92.90
2022-11-01T04:03:47.075Z,93.39
2022-11-01T04:06:15.142Z,93.91
2022-11-01T04:08:43.128Z,93.90
2022-11-01T04:11:11.223Z,93.65
2022-11-01T04:13:39.289Z,93.09
2022-11-01T04:16:29.336Z,92.63
2022-11-01T04:19:15.999Z,92.28
2022-11-01T04:21:44.224Z,92.09
2022-11-01T04:24:21.062Z,92.20
2022-11-01T04:26:49.885Z,92.53
2022-11-01T04:29:18.010Z,92.61
2022-11-01T04:31:45.955Z,92.73
2022-11-01T04:34:14.355Z,92.67
2022-11-01T04:36:42.570Z,92.79
2022-11-01T04:39:10.568Z,92.55
2022-11-01T04:41:38.933Z,92.63
2022-11-01T04:44:07.951Z,92.84
2022-11-01T04:46:35.899Z,92.94
2022-11-01T04:49:04.149Z,93.35
2022-11-01T04:51:32.234Z,93.54
2022-11-01T04:54:00.201Z,93.41
2022-11-01T04:56:28.291Z,93.45
2022-11-01T04:58:56.986Z,93.55
2022-11-01T05:01:25.063Z,93.50
2022-11-01T05:03:53.269Z,93.41
2022-11-01T05:06:21.336Z,93.46
2022-11-01T05:08:49.243Z,93.49
2022-11-01T05:11:17.274Z,93.15
2022-11-01T05:13:45.452Z,93.11
2022-11-01T05:16:19.283Z,93.35
2022-11-01T05:18:48.966Z,93.23
2022-11-01T05:21:17.588Z,93.27
2022-11-01T05:23:47.819Z,93.18
2022-11-01T05:26:16.076Z,93.03
2022-11-01T05:28:44.048Z,93.14
2022-11-01T05:31:12.060Z,93.26
2022-11-01T05:33:40.329Z,93.17
2022-11-01T05:36:08.346Z,92.78
2022-11-01T05:38:36.265Z,92.87
2022-11-01T05:41:04.739Z,92.92
2022-11-01T05:43:32.826Z,92.41
2022-11-01T05:46:07.141Z,92.16
2022-11-01T05:48:35.547Z,92.00
2022-11-01T05:51:03.646Z,91.96
2022-11-01T05:53:31.695Z,92.19
2022-11-01T05:55:59.962Z,92.44
2022-11-01T05:58:30.697Z,92.47
2022-11-01T06:01:05.805Z,92.43
2022-11-01T06:03:34.840Z,92.37
2022-11-01T06:06:03.321Z,92.43
2022-11-01T06:08:31.550Z,92.08
2022-11-01T06:11:06.406Z,92.06
2022-11-01T06:13:34.371Z,92.42
2022-11-01T06:16:05.874Z,92.48
2022-11-01T06:18:34.052Z,92.63
2022-11-01T06:21:01.995Z,92.26
2022-11-01T06:23:30.158Z,92.61
2022-11-01T06:26:02.859Z,92.73
2022-11-01T06:28:31.095Z,92.83
2022-11-01T06:33:31.924Z,93.02
2022-11-01T06:36:01.725Z,93.20
2022-11-01T06:38:30.134Z,93.53
2022-11-01T06:40:58.365Z,93.60
2022-11-01T06:43:26.688Z,93.57
2022-11-01T06:45:54.655Z,93.55
2022-11-01T06:48:22.629Z,93.34
2022-11-01T06:50:51.810Z,93.02
2022-11-01T06:53:20.149Z,93.03
2022-11-01T06:55:48.254Z,93.14
2022-11-01T06:58:16.411Z,93.13
2022-11-01T07:00:45.391Z,93.06
2022-11-01T07:03:14.519Z,92.79
2022-11-01T07:05:42.751Z,92.68
2022-11-01T07:08:13.083Z,92.61
2022-11-01T07:10:43.919Z,92.81
2022-11-01T07:13:13.638Z,93.08
2022-11-01T07:15:41.736Z,93.21
2022-11-01T07:18:10.815Z,93.14
2022-11-01T07:20:42.545Z,93.32
2022-11-01T07:23:16.071Z,93.50
2022-11-01T07:25:44.978Z,93.29
2022-11-01T07:28:12.947Z,93.31
2022-11-01T07:30:40.929Z,93.21
2022-11-01T07:33:09.299Z,93.38
2022-11-01T07:35:37.295Z,93.45
2022-11-01T07:38:09.706Z,93.73
2022-11-01T07:40:41.455Z,94.09
2022-11-01T07:43:09.518Z,93.77
2022-11-01T07:45:37.859Z,93.61
2022-11-01T07:48:10.513Z,93.44
2022-11-01T07:50:40.313Z,93.00
2022-11-01T07:53:14.674Z,93.01
2022-11-01T07:55:43.618Z,93.00
2022-11-01T07:58:13.465Z,93.10
2022-11-01T08:00:43.782Z,93.13
2022-11-01T08:03:14.597Z,92.93
2022-11-01T08:05:45.274Z,92.48
2022-11-01T08:08:14.983Z,92.57
2022-11-01T08:10:43.220Z,92.71
2022-11-01T08:13:16.065Z,92.45
2022-11-01T08:15:45.242Z,92.44
2022-11-01T08:18:13.869Z,92.31
2022-11-01T08:20:42.089Z,92.09
2022-11-01T08:23:11.404Z,92.15
2022-11-01T08:25:40.248Z,92.09
2022-11-01T08:28:12.763Z,91.65
2022-11-01T08:30:43.286Z,91.73
2022-11-01T08:33:11.592Z,91.82
2022-11-01T08:35:40.140Z,91.35
2022-11-01T08:38:09.540Z,91.73
2022-11-01T08:40:37.756Z,91.84
2022-11-01T08:43:06.171Z,91.38
2022-11-01T08:45:34.469Z,91.31
2022-11-01T08:48:05.172Z,91.07
2022-11-01T08:50:34.970Z,90.82
2022-11-01T08:53:11.442Z,91.07
2022-11-01T08:55:39.746Z,91.02
2022-11-01T08:58:08.497Z,91.11
2022-11-01T09:00:37.295Z,90.91
2022-11-01T09:03:05.498Z,91.33
2022-11-01T09:05:34.493Z,91.26
2022-11-01T09:08:03.271Z,91.03
2022-11-01T09:10:32.992Z,90.75
2022-11-01T09:13:02.319Z,91.07
2022-11-01T09:15:30.930Z,91.05
2022-11-01T09:17:59.093Z,91.03
2022-11-01T09:20:28.409Z,91.41
2022-11-01T09:22:56.460Z,91.80
2022-11-01T09:25:25.290Z,91.46
2022-11-01T09:27:56.350Z,91.66
2022-11-01T09:30:25.212Z,91.65
2022-11-01T09:32:53.323Z,92.10
2022-11-01T09:35:21.583Z,92.11
2022-11-01T09:37:49.521Z,92.10
2022-11-01T09:40:17.746Z,91.82
2022-11-01T09:42:46.564Z,91.61
2022-11-01T09:45:21.100Z,91.78
2022-11-01T09:47:56.272Z,91.81
2022-11-01T09:50:29.496Z,91.86
2022-11-01T09:52:58.279Z,91.37
2022-11-01T09:55:41.165Z,91.56
2022-11-01T09:58:23.425Z,91.81
2022-11-01T10:01:05.673Z,91.67
2022-11-01T10:03:38.330Z,91.62
2022-11-01T10:06:44.775Z,91.55
2022-11-01T10:09:49.091Z,91.56
2022-11-01T10:12:33.619Z,91.65
2022-11-01T10:15:13.539Z,91.14
2022-11-01T10:17:52.312Z,91.18
2022-11-01T10:20:26.580Z,91.39
2022-11-01T10:22:55.289Z,91.23
2022-11-01T10:25:27.540Z,91.62
2022-11-01T10:28:19.749Z,91.53
2022-11-01T10:30:53.544Z,91.63
2022-11-01T10:33:35.472Z,91.15
2022-11-01T10:36:19.929Z,91.16
2022-11-01T10:41:48.830Z,91.45
2022-11-01T10:44:27.607Z,91.37
2022-11-01T10:46:58.845Z,91.18
2022-11-01T10:52:29.721Z,90.94
2022-11-01T10:54:59.639Z,90.77
2022-11-01T10:57:44.982Z,90.91
2022-11-01T11:00:18.962Z,90.83
2022-11-01T11:02:56.490Z,91.16
2022-11-01T11:05:29.122Z,91.48
2022-11-01T11:07:57.704Z,91.17
2022-11-01T11:10:28.939Z,90.91
2022-11-01T11:13:01.115Z,91.08
2022-11-01T11:15:38.220Z,90.94
2022-11-01T11:18:16.461Z,91.22
2022-11-01T11:20:44.589Z,91.20
2022-11-01T11:23:13.095Z,90.88
2022-11-01T11:25:43.028Z,90.96
2022-11-01T11:28:24.072Z,91.25
2022-11-01T11:30:53.002Z,91.28
2022-11-01T11:33:22.186Z,91.23
2022-11-01T11:35:57.813Z,91.18
2022-11-01T11:38:44.073Z,91.13
2022-11-01T11:41:25.195Z,90.77
2022-11-01T11:43:53.190Z,90.96
2022-11-01T11:46:23.646Z,91.32
2022-11-01T11:48:53.148Z,91.02
2022-11-01T11:51:22.083Z,90.92
2022-11-01T11:54:20.988Z,90.95
2022-11-01T11:57:07.796Z,91.01
2022-11-01T11:59:35.972Z,90.32
2022-11-01T12:02:15.019Z,89.92
2022-11-01T12:16:53.865Z,87.64
2022-11-01T12:19:29.385Z,86.94
2022-11-01T12:22:01.229Z,86.86
2022-11-01T12:24:50.937Z,87.19
2022-11-01T12:27:23.369Z,87.39
2022-11-01T12:30:15.985Z,87.33
2022-11-01T12:32:50.154Z,87.57
2022-11-01T12:35:46.695Z,87.88
2022-11-01T12:38:28.052Z,87.39
2022-11-01T12:41:00.434Z,87.30
2022-11-01T12:43:36.534Z,87.05
2022-11-01T12:46:21.591Z,87.37
2022-11-01T12:49:11.040Z,87.48
2022-11-01T12:51:45.265Z,87.56
2022-11-01T12:54:21.938Z,87.43
2022-11-01T12:56:49.930Z,87.57
2022-11-01T12:59:25.216Z,87.26
2022-11-01T13:02:08.688Z,87.26
2022-11-01T13:04:40.597Z,87.31
2022-11-01T13:07:26.856Z,86.92
2022-11-01T13:10:10.629Z,86.75
2022-11-01T13:13:04.359Z,86.91
2022-11-01T13:16:16.306Z,86.65
2022-11-01T13:18:51.861Z,86.70
2022-11-01T13:21:35.280Z,86.58
2022-11-01T13:24:42.335Z,86.29
2022-11-01T13:27:15.522Z,86.35
2022-11-01T13:29:54.132Z,86.68
2022-11-01T13:32:33.991Z,86.40
2022-11-01T13:35:04.933Z,86.59
2022-11-01T13:37:45.205Z,86.30
2022-11-01T13:40:44.857Z,86.10
2022-11-01T13:43:16.880Z,86.44
2022-11-01T13:45:51.383Z,86.49
2022-11-01T13:48:56.898Z,86.23
2022-11-01T13:52:01.893Z,86.25
2022-11-01T13:54:30.034Z,86.32
2022-11-01T13:57:09.301Z,86.09
2022-11-01T13:59:37.189Z,86.17
2022-11-01T14:02:23.960Z,86.09
2022-11-01T14:05:12.646Z,86.13
2022-11-01T14:07:44.188Z,86.29
2022-11-01T14:10:17.986Z,86.20
2022-11-01T14:13:07.001Z,86.36
2022-11-01T14:15:39.686Z,86.46
2022-11-01T14:18:09.982Z,86.67
2022-11-01T14:20:44.011Z,86.62
2022-11-01T14:23:30.184Z,86.81
2022-11-01T14:26:21.407Z,86.19
2022-11-01T14:28:51.843Z,86.22
2022-11-01T14:31:24.017Z,86.32
2022-11-01T14:33:56.081Z,86.31
2022-11-01T14:36:32.793Z,86.53
2022-11-01T14:39:09.383Z,86.51
2022-11-01T14:41:41.087Z,86.48
2022-11-01T14:44:22.766Z,86.49
2022-11-01T14:46:56.361Z,86.16
2022-11-01T14:49:44.280Z,86.00
2022-11-01T14:52:37.525Z,86.22
2022-11-01T14:55:21.083Z,86.11
2022-11-01T14:57:49.243Z,85.81
2022-11-01T15:00:30.041Z,85.99
2022-11-01T15:03:00.956Z,86.16
2022-11-01T15:05:29.227Z,86.28
2022-11-01T15:07:59.483Z,86.24
2022-11-01T15:10:27.963Z,86.15
2022-11-01T15:13:04.366Z,86.04
2022-11-01T15:15:37.016Z,86.07
2022-11-01T15:18:14.300Z,86.09
2022-11-01T15:20:48.664Z,86.01
2022-11-01T15:23:29.753Z,86.18
2022-11-01T15:26:00.341Z,85.82
2022-11-01T15:28:37.190Z,85.65
2022-11-01T15:31:06.513Z,85.95
2022-11-01T15:33:35.021Z,86.00
2022-11-01T15:36:18.747Z,85.86
2022-11-01T15:39:24.120Z,85.58
2022-11-01T15:41:55.192Z,85.40
2022-11-01T15:44:29.789Z,85.24
2022-11-01T15:47:00.148Z,85.34
2022-11-01T15:49:34.596Z,85.57
2022-11-01T15:52:25.849Z,85.53
2022-11-01T15:55:01.212Z,85.73
2022-11-01T15:57:38.262Z,85.74
2022-11-01T16:00:17.617Z,85.55
2022-11-01T16:02:49.824Z,85.30
2022-11-01T16:05:23.743Z,85.57
2022-11-01T16:07:52.808Z,85.40
2022-11-01T16:10:24.609Z,85.29
2022-11-01T16:12:54.285Z,85.41
2022-11-01T16:15:33.765Z,85.31
2022-11-01T16:18:15.965Z,85.36
2022-11-01T16:20:47.329Z,85.36
2022-11-01T16:23:28.534Z,85.29
2022-11-01T16:26:02.796Z,85.19
2022-11-01T16:28:38.935Z,84.99
2022-11-01T16:31:22.424Z,84.94
2022-11-01T16:33:50.826Z,84.98
2022-11-01T16:36:18.924Z,84.83
2022-11-01T16:38:52.102Z,84.95
2022-11-01T16:41:39.594Z,85.03
2022-11-01T16:44:16.015Z,85.22
2022-11-01T16:46:44.647Z,85.25
2022-11-01T16:49:23.093Z,84.87
2022-11-01T16:51:54.015Z,85.35
2022-11-01T16:54:23.249Z,85.40
2022-11-01T16:56:57.840Z,85.41
2022-11-01T16:59:37.135Z,85.07
2022-11-01T17:02:26.858Z,85.16
2022-11-01T17:05:02.700Z,85.05
2022-11-01T17:07:32.084Z,85.25
2022-11-01T17:10:00.235Z,85.16
2022-11-01T17:12:28.556Z,85.10
2022-11-01T17:14:56.669Z,85.24
2022-11-01T17:17:27.481Z,85.19
2022-11-01T17:20:01.393Z,85.29
2022-11-01T17:22:36.636Z,85.50
2022-11-01T17:25:06.092Z,85.95
2022-11-01T17:27:34.554Z,86.27
2022-11-01T17:30:02.585Z,86.16
2022-11-01T17:32:30.873Z,86.05
2022-11-01T17:34:58.952Z,86.21
2022-11-01T17:37:31.506Z,86.26
2022-11-01T17:40:00.804Z,86.53
2022-11-01T17:42:29.128Z,86.60
2022-11-01T17:45:17.635Z,86.53
2022-11-01T17:47:46.560Z,86.44
2022-11-01T17:50:16.363Z,86.40
2022-11-01T17:52:44.609Z,86.24
2022-11-01T17:55:13.821Z,86.19
2022-11-01T17:57:43.510Z,86.10
2022-11-01T18:00:12.011Z,86.44
2022-11-01T18:02:43.546Z,86.49
2022-11-01T18:05:11.976Z,86.59
2022-11-01T18:07:43.732Z,87.01
2022-11-01T18:10:22.505Z,87.22
2022-11-01T18:12:57.630Z,87.48
2022-11-01T18:15:56.146Z,87.36
2022-11-01T18:19:03.732Z,87.35
2022-11-01T18:21:42.782Z,87.44
2022-11-01T18:24:22.204Z,87.19
2022-11-01T18:26:51.681Z,87.30
2022-11-01T18:29:24.069Z,87.60
2022-11-01T18:32:12.314Z,87.69
2022-11-01T18:35:11.130Z,87.93
2022-11-01T18:37:51.053Z,87.86
2022-11-01T18:40:27.068Z,88.31
2022-11-01T18:42:55.420Z,88.20
2022-11-01T18:45:33.052Z,87.93
2022-11-01T18:48:17.190Z,88.34
2022-11-01T18:50:46.419Z,88.24
2022-11-01T18:53:18.057Z,88.28
2022-11-01T18:55:50.305Z,88.12
2022-11-01T18:58:25.646Z,88.08
2022-11-01T19:01:03.152Z,88.48
2022-11-01T19:03:32.557Z,88.46
2022-11-01T19:06:21.460Z,88.20
2022-11-01T19:09:02.276Z,88.55
2022-11-01T19:11:31.824Z,88.91
2022-11-01T19:14:02.355Z,88.56
2022-11-01T19:16:31.463Z,88.23
2022-11-01T19:19:01.835Z,88.20
2022-11-01T19:21:35.934Z,88.36
2022-11-01T19:24:32.015Z,88.76
2022-11-01T19:27:02.962Z,89.09
2022-11-01T19:29:34.595Z,89.01
2022-11-01T19:32:05.061Z,89.38
2022-11-01T19:34:38.397Z,89.64
2022-11-01T19:37:25.086Z,89.66
2022-11-01T19:39:55.749Z,89.65
2022-11-01T19:42:33.588Z,89.64
2022-11-01T19:45:15.671Z,89.73
2022-11-01T19:47:49.272Z,90.00
2022-11-01T19:50:29.810Z,90.01
2022-11-01T19:52:59.928Z,89.86
2022-11-01T19:55:40.617Z,89.98
2022-11-01T19:58:34.530Z,90.26
2022-11-01T20:01:18.133Z,90.50
2022-11-01T20:04:13.565Z,90.32
2022-11-01T20:06:48.962Z,90.52
2022-11-01T20:09:18.728Z,90.37
2022-11-01T20:11:47.900Z,90.35
2022-11-01T20:14:17.669Z,90.16
2022-11-01T20:16:47.385Z,90.24
2022-11-01T20:19:17.814Z,90.48
2022-11-01T20:21:48.227Z,90.78
2022-11-01T20:24:18.158Z,91.11
2022-11-01T20:26:46.778Z,91.58
2022-11-01T20:29:15.217Z,91.75
2022-11-01T20:31:43.683Z,91.48
2022-11-01T20:34:11.918Z,91.72
2022-11-01T20:36:39.964Z,91.92
2022-11-01T20:39:10.474Z,92.12
2022-11-01T20:41:41.400Z,92.07
2022-11-01T20:44:09.683Z,91.94
2022-11-01T20:46:37.787Z,91.79
2022-11-01T20:49:05.793Z,91.93
2022-11-01T20:51:34.439Z,91.99
2022-11-01T20:54:02.510Z,92.08
2022-11-01T20:56:30.789Z,92.10
2022-11-01T20:58:59.038Z,92.44
2022-11-01T21:01:27.128Z,92.80
2022-11-01T21:03:55.204Z,92.81
2022-11-01T21:06:28.169Z,92.89
2022-11-01T21:08:57.387Z,93.25
2022-11-01T21:11:44.154Z,93.36
2022-11-01T21:14:22.375Z,93.29
2022-11-01T21:16:50.657Z,93.49
2022-11-01T21:19:25.362Z,93.28
2022-11-01T21:21:58.153Z,93.60
2022-11-01T21:24:39.882Z,93.87
2022-11-01T21:30:03.162Z,93.96
2022-11-01T21:32:35.083Z,94.13
2022-11-01T21:35:25.672Z,94.28
2022-11-01T21:37:55.622Z,94.26
2022-11-01T21:40:29.565Z,94.31
2022-11-01T21:42:58.407Z,94.18
2022-11-01T21:45:32.083Z,94.12
2022-11-01T21:48:13.925Z,94.09
2022-11-01T21:50:41.898Z,94.13
2022-11-01T21:53:09.989Z,94.41
2022-11-01T21:55:37.973Z,94.74
2022-11-01T21:58:05.911Z,94.84
2022-11-01T22:00:33.905Z,94.64
2022-11-01T22:03:02.172Z,94.64
2022-11-01T22:05:30.390Z,94.69
2022-11-01T22:07:58.361Z,94.78
2022-11-01T22:10:26.301Z,94.73
2022-11-01T22:12:54.801Z,94.78
2022-11-01T22:15:24.052Z,94.72
2022-11-01T22:17:52.000Z,94.87
2022-11-01T22:20:20.005Z,94.88
2022-11-01T22:22:48.103Z,95.14
2022-11-01T22:25:16.169Z,94.91
2022-11-01T22:27:44.094Z,95.05
2022-11-01T22:30:12.304Z,94.97
2022-11-01T22:32:40.267Z,94.90
2022-11-01T22:35:08.662Z,94.90
2022-11-01T22:37:36.962Z,94.80
2022-11-01T22:40:12.983Z,94.80
2022-11-01T22:42:41.483Z,94.68
2022-11-01T22:45:14.993Z,94.69
2022-11-01T22:47:44.913Z,94.46
2022-11-01T22:50:21.726Z,94.64
2022-11-01T22:52:50.388Z,94.53
2022-11-01T22:55:20.545Z,94.64
2022-11-01T22:57:52.417Z,94.48
2022-11-01T23:00:32.342Z,94.50
2022-11-01T23:03:00.421Z,94.53
2022-11-01T23:05:29.012Z,94.37
2022-11-01T23:07:59.695Z,94.61
2022-11-01T23:10:35.153Z,94.56
2022-11-01T23:13:31.266Z,94.71
2022-11-01T23:16:01.520Z,94.76
2022-11-01T23:18:34.100Z,94.47
2022-11-01T23:21:06.707Z,94.60
2022-11-01T23:23:41.896Z,94.63
2022-11-01T23:26:10.526Z,94.69
2022-11-01T23:28:44.397Z,94.91
2022-11-01T23:31:13.186Z,95.05
2022-11-01T23:33:46.746Z,95.12
2022-11-01T23:36:38.334Z,95.29
2022-11-01T23:39:11.803Z,95.16
2022-11-01T23:41:45.353Z,95.35
2022-11-01T23:44:16.918Z,95.28
2022-11-01T23:46:44.960Z,95.35
2022-11-01T23:49:23.626Z,95.43
2022-11-01T23:51:52.538Z,95.02
2022-11-01T23:54:34.247Z,95.21
2022-11-01T23:57:02.314Z,95.37
2022-11-01T23:59:30.609Z,95.35
